sensor_id;sensor_type;location;lat;lon;timestamp;pressure;altitude;pressure_sealevel;temperature;humidity
4415;BME280;2220;42.670;23.398;2023-08-21T00:00:46;95282.44;;;23.16;100.00
4415;BME280;2220;42.670;23.398;2023-08-21T00:03:11;95287.00;;;23.16;100.00
4415;BME280;2220;42.670;23.398;2023-08-21T00:05:36;95284.16;;;23.21;100.00
4415;BME280;2220;42.670;23.398;2023-08-21T00:08:02;95284.94;;;23.22;100.00
4415;BME280;2220;42.670;23.398;2023-08-21T00:10:30;95290.84;;;23.27;100.00
4415;BME280;2220;42.670;23.398;2023-08-21T00:12:56;95284.28;;;23.25;100.00
4415;BME280;2220;42.670;23.398;2023-08-21T00:15:21;95280.06;;;23.24;100.00
4415;BME280;2220;42.670;23.398;2023-08-21T00:17:47;95286.16;;;23.24;100.00
4415;BME280;2220;42.670;23.398;2023-08-21T00:20:12;95284.94;;;23.22;100.00
4415;BME280;2220;42.670;23.398;2023-08-21T00:22:38;95285.25;;;23.20;100.00
4415;BME280;2220;42.670;23.398;2023-08-21T00:25:03;95286.38;;;23.19;100.00
4415;BME280;2220;42.670;23.398;2023-08-21T00:27:29;95282.16;;;23.18;100.00
4415;BME280;2220;42.670;23.398;2023-08-21T00:29:55;95274.31;;;23.22;100.00
4415;BME280;2220;42.670;23.398;2023-08-21T00:32:20;95280.78;;;23.33;100.00
4415;BME280;2220;42.670;23.398;2023-08-21T00:34:46;95279.56;;;23.30;100.00
4415;BME280;2220;42.670;23.398;2023-08-21T00:37:11;95287.53;;;23.30;100.00
4415;BME280;2220;42.670;23.398;2023-08-21T00:39:36;95285.06;;;23.25;100.00
4415;BME280;2220;42.670;23.398;2023-08-21T00:42:02;95295.00;;;23.37;100.00
4415;BME280;2220;42.670;23.398;2023-08-21T00:44:28;95290.97;;;23.31;100.00
4415;BME280;2220;42.670;23.398;2023-08-21T00:46:53;95291.06;;;23.13;100.00
4415;BME280;2220;42.670;23.398;2023-08-21T00:49:20;95292.19;;;23.12;100.00
4415;BME280;2220;42.670;23.398;2023-08-21T00:51:47;95290.53;;;22.99;100.00
4415;BME280;2220;42.670;23.398;2023-08-21T00:54:13;95296.16;;;22.98;100.00
4415;BME280;2220;42.670;23.398;2023-08-21T00:56:38;95297.44;;;22.92;100.00
4415;BME280;2220;42.670;23.398;2023-08-21T00:59:04;95292.31;;;22.86;100.00
4415;BME280;2220;42.670;23.398;2023-08-21T01:01:29;95298.72;;;22.85;100.00
4415;BME280;2220;42.670;23.398;2023-08-21T01:03:55;95298.72;;;22.85;100.00
4415;BME280;2220;42.670;23.398;2023-08-21T01:06:21;95300.88;;;22.83;100.00
4415;BME280;2220;42.670;23.398;2023-08-21T01:09:02;95295.28;;;22.85;100.00
4415;BME280;2220;42.670;23.398;2023-08-21T01:11:52;95295.78;;;22.70;100.00
4415;BME280;2220;42.670;23.398;2023-08-21T01:17:09;95301.59;;;22.63;100.00
4415;BME280;2220;42.670;23.398;2023-08-21T01:19:41;95291.94;;;22.58;100.00
4415;BME280;2220;42.670;23.398;2023-08-21T01:22:08;95295.72;;;22.49;100.00
4415;BME280;2220;42.670;23.398;2023-08-21T01:24:34;95299.50;;;22.39;100.00
4415;BME280;2220;42.670;23.398;2023-08-21T01:27:00;95301.50;;;22.42;100.00
4415;BME280;2220;42.670;23.398;2023-08-21T01:29:25;95292.63;;;22.29;100.00
4415;BME280;2220;42.670;23.398;2023-08-21T01:32:23;95298.28;;;22.19;100.00
4415;BME280;2220;42.670;23.398;2023-08-21T01:34:55;95292.19;;;22.01;100.00
4415;BME280;2220;42.670;23.398;2023-08-21T01:37:21;95296.88;;;21.61;100.00
4415;BME280;2220;42.670;23.398;2023-08-21T01:39:47;95283.78;;;21.65;100.00
4415;BME280;2220;42.670;23.398;2023-08-21T01:42:12;95284.88;;;21.64;100.00
4415;BME280;2220;42.670;23.398;2023-08-21T01:44:38;95289.72;;;21.70;100.00
4415;BME280;2220;42.670;23.398;2023-08-21T01:47:04;95291.28;;;21.63;100.00
4415;BME280;2220;42.670;23.398;2023-08-21T01:49:29;95288.63;;;21.63;100.00
4415;BME280;2220;42.670;23.398;2023-08-21T01:51:55;95288.75;;;21.32;100.00
4415;BME280;2220;42.670;23.398;2023-08-21T01:54:20;95283.84;;;21.16;100.00
4415;BME280;2220;42.670;23.398;2023-08-21T01:56:45;95275.25;;;20.93;100.00
4415;BME280;2220;42.670;23.398;2023-08-21T01:59:11;95270.22;;;20.83;100.00
4415;BME280;2220;42.670;23.398;2023-08-21T02:01:36;95275.41;;;20.88;100.00
4415;BME280;2220;42.670;23.398;2023-08-21T02:04:02;95261.69;;;20.86;100.00
4415;BME280;2220;42.670;23.398;2023-08-21T02:06:27;95261.38;;;20.88;100.00
4415;BME280;2220;42.670;23.398;2023-08-21T02:08:53;95265.91;;;20.87;100.00
4415;BME280;2220;42.670;23.398;2023-08-21T02:11:18;95264.81;;;20.88;100.00
4415;BME280;2220;42.670;23.398;2023-08-21T02:13:44;95268.22;;;20.89;100.00
4415;BME280;2220;42.670;23.398;2023-08-21T02:16:09;95246.31;;;20.49;100.00
4415;BME280;2220;42.670;23.398;2023-08-21T02:18:34;95261.31;;;20.62;100.00
4415;BME280;2220;42.670;23.398;2023-08-21T02:21:01;95257.06;;;20.61;100.00
4415;BME280;2220;42.670;23.398;2023-08-21T02:23:26;95262.38;;;20.61;100.00
4415;BME280;2220;42.670;23.398;2023-08-21T02:25:52;95249.72;;;20.49;100.00
4415;BME280;2220;42.670;23.398;2023-08-21T02:28:17;95262.84;;;20.54;100.00
4415;BME280;2220;42.670;23.398;2023-08-21T02:30:43;95262.22;;;20.57;100.00
4415;BME280;2220;42.670;23.398;2023-08-21T02:33:08;95255.19;;;20.53;100.00
4415;BME280;2220;42.670;23.398;2023-08-21T02:35:34;95255.81;;;20.58;100.00
4415;BME280;2220;42.670;23.398;2023-08-21T02:38:05;95270.31;;;20.61;100.00
4415;BME280;2220;42.670;23.398;2023-08-21T02:40:33;95263.13;;;20.53;100.00
4415;BME280;2220;42.670;23.398;2023-08-21T02:43:01;95270.00;;;20.54;100.00
4415;BME280;2220;42.670;23.398;2023-08-21T02:45:30;95268.59;;;20.56;100.00
4415;BME280;2220;42.670;23.398;2023-08-21T02:47:56;95259.84;;;20.47;100.00
4415;BME280;2220;42.670;23.398;2023-08-21T02:50:21;95264.63;;;20.45;100.00
4415;BME280;2220;42.670;23.398;2023-08-21T02:52:47;95265.22;;;20.42;100.00
4415;BME280;2220;42.670;23.398;2023-08-21T02:55:12;95269.59;;;20.38;100.00
4415;BME280;2220;42.670;23.398;2023-08-21T02:57:39;95267.06;;;20.33;100.00
4415;BME280;2220;42.670;23.398;2023-08-21T03:00:05;95259.00;;;20.38;100.00
4415;BME280;2220;42.670;23.398;2023-08-21T03:02:32;95257.41;;;20.37;100.00
4415;BME280;2220;42.670;23.398;2023-08-21T03:04:58;95256.03;;;20.39;100.00
4415;BME280;2220;42.670;23.398;2023-08-21T03:07:23;95265.72;;;20.44;100.00
4415;BME280;2220;42.670;23.398;2023-08-21T03:09:50;95273.06;;;20.47;100.00
4415;BME280;2220;42.670;23.398;2023-08-21T03:12:15;95262.53;;;20.56;100.00
4415;BME280;2220;42.670;23.398;2023-08-21T03:14:41;95263.47;;;20.68;100.00
4415;BME280;2220;42.670;23.398;2023-08-21T03:17:06;95276.56;;;20.65;100.00
4415;BME280;2220;42.670;23.398;2023-08-21T03:19:32;95273.22;;;20.90;100.00
4415;BME280;2220;42.670;23.398;2023-08-21T03:21:57;95277.91;;;20.93;100.00
4415;BME280;2220;42.670;23.398;2023-08-21T03:24:23;95284.75;;;20.94;100.00
4415;BME280;2220;42.670;23.398;2023-08-21T03:26:48;95301.75;;;21.02;100.00
4415;BME280;2220;42.670;23.398;2023-08-21T03:29:14;95297.38;;;20.98;100.00
4415;BME280;2220;42.670;23.398;2023-08-21T03:31:39;95287.13;;;21.05;100.00
4415;BME280;2220;42.670;23.398;2023-08-21T03:34:05;95301.16;;;21.14;100.00
4415;BME280;2220;42.670;23.398;2023-08-21T03:36:30;95295.22;;;21.08;100.00
4415;BME280;2220;42.670;23.398;2023-08-21T03:39:00;95291.47;;;21.09;100.00
4415;BME280;2220;42.670;23.398;2023-08-21T03:41:27;95289.56;;;20.92;100.00
4415;BME280;2220;42.670;23.398;2023-08-21T03:43:52;95283.34;;;20.97;100.00
4415;BME280;2220;42.670;23.398;2023-08-21T03:46:18;95278.06;;;20.97;100.00
4415;BME280;2220;42.670;23.398;2023-08-21T03:48:44;95274.78;;;20.91;100.00
4415;BME280;2220;42.670;23.398;2023-08-21T03:51:09;95279.63;;;20.98;100.00
4415;BME280;2220;42.670;23.398;2023-08-21T03:53:35;95279.16;;;20.96;100.00
4415;BME280;2220;42.670;23.398;2023-08-21T03:56:00;95278.34;;;20.87;100.00
4415;BME280;2220;42.670;23.398;2023-08-21T03:58:25;95278.66;;;20.85;100.00
4415;BME280;2220;42.670;23.398;2023-08-21T04:00:52;95277.56;;;20.86;100.00
4415;BME280;2220;42.670;23.398;2023-08-21T04:03:18;95286.28;;;20.78;100.00
4415;BME280;2220;42.670;23.398;2023-08-21T04:05:43;95275.31;;;20.62;100.00
4415;BME280;2220;42.670;23.398;2023-08-21T04:08:09;95273.44;;;20.63;100.00
4415;BME280;2220;42.670;23.398;2023-08-21T04:10:34;95273.56;;;20.58;100.00
4415;BME280;2220;42.670;23.398;2023-08-21T04:13:00;95279.19;;;20.56;100.00
4415;BME280;2220;42.670;23.398;2023-08-21T04:15:26;95280.31;;;20.64;100.00
4415;BME280;2220;42.670;23.398;2023-08-21T04:17:52;95291.75;;;20.51;100.00
4415;BME280;2220;42.670;23.398;2023-08-21T04:20:19;95277.28;;;20.48;100.00
4415;BME280;2220;42.670;23.398;2023-08-21T04:22:47;95303.81;;;20.65;100.00
4415;BME280;2220;42.670;23.398;2023-08-21T04:25:12;95305.88;;;20.77;100.00
4415;BME280;2220;42.670;23.398;2023-08-21T04:27:38;95304.84;;;20.87;100.00
4415;BME280;2220;42.670;23.398;2023-08-21T04:30:04;95311.66;;;20.79;100.00
4415;BME280;2220;42.670;23.398;2023-08-21T04:32:30;95320.00;;;21.04;100.00
4415;BME280;2220;42.670;23.398;2023-08-21T04:34:55;95318.28;;;21.16;100.00
4415;BME280;2220;42.670;23.398;2023-08-21T04:37:21;95320.72;;;21.35;100.00
4415;BME280;2220;42.670;23.398;2023-08-21T04:39:50;95323.22;;;21.49;100.00
4415;BME280;2220;42.670;23.398;2023-08-21T04:42:16;95327.59;;;21.54;100.00
4415;BME280;2220;42.670;23.398;2023-08-21T04:44:42;95324.63;;;21.64;100.00
4415;BME280;2220;42.670;23.398;2023-08-21T04:47:25;95328.84;;;21.65;100.00
4415;BME280;2220;42.670;23.398;2023-08-21T04:49:54;95325.91;;;21.66;100.00
4415;BME280;2220;42.670;23.398;2023-08-21T04:52:21;95326.38;;;21.60;100.00
4415;BME280;2220;42.670;23.398;2023-08-21T04:54:50;95327.47;;;21.67;100.00
4415;BME280;2220;42.670;23.398;2023-08-21T04:57:16;95331.22;;;21.75;100.00
4415;BME280;2220;42.670;23.398;2023-08-21T04:59:46;95329.97;;;21.90;100.00
4415;BME280;2220;42.670;23.398;2023-08-21T05:02:12;95342.13;;;21.91;100.00
4415;BME280;2220;42.670;23.398;2023-08-21T05:04:37;95344.47;;;22.01;100.00
4415;BME280;2220;42.670;23.398;2023-08-21T05:07:03;95351.50;;;22.14;100.00
4415;BME280;2220;42.670;23.398;2023-08-21T05:09:29;95352.88;;;22.29;100.00
4415;BME280;2220;42.670;23.398;2023-08-21T05:11:55;95358.97;;;22.38;100.00
4415;BME280;2220;42.670;23.398;2023-08-21T05:14:21;95349.31;;;22.25;100.00
4415;BME280;2220;42.670;23.398;2023-08-21T05:16:50;95349.78;;;22.18;100.00
4415;BME280;2220;42.670;23.398;2023-08-21T05:19:16;95346.78;;;21.94;100.00
4415;BME280;2220;42.670;23.398;2023-08-21T05:21:43;95356.19;;;22.09;100.00
4415;BME280;2220;42.670;23.398;2023-08-21T05:24:08;95356.63;;;22.19;100.00
4415;BME280;2220;42.670;23.398;2023-08-21T05:26:36;95353.81;;;22.07;100.00
4415;BME280;2220;42.670;23.398;2023-08-21T05:29:02;95359.59;;;22.26;100.00
4415;BME280;2220;42.670;23.398;2023-08-21T05:31:27;95351.31;;;22.28;100.00
4415;BME280;2220;42.670;23.398;2023-08-21T05:33:53;95354.91;;;22.32;100.00
4415;BME280;2220;42.670;23.398;2023-08-21T05:36:18;95349.72;;;22.44;100.00
4415;BME280;2220;42.670;23.398;2023-08-21T05:38:44;95357.50;;;22.58;100.00
4415;BME280;2220;42.670;23.398;2023-08-21T05:41:09;95360.78;;;22.64;100.00
4415;BME280;2220;42.670;23.398;2023-08-21T05:43:35;95360.13;;;22.75;100.00
4415;BME280;2220;42.670;23.398;2023-08-21T05:46:01;95361.34;;;22.95;100.00
4415;BME280;2220;42.670;23.398;2023-08-21T05:48:26;95352.84;;;23.02;100.00
4415;BME280;2220;42.670;23.398;2023-08-21T05:50:52;95355.28;;;23.15;100.00
4415;BME280;2220;42.670;23.398;2023-08-21T05:53:18;95356.50;;;23.27;100.00
4415;BME280;2220;42.670;23.398;2023-08-21T05:55:43;95357.84;;;23.33;100.00
4415;BME280;2220;42.670;23.398;2023-08-21T05:58:09;95358.75;;;23.45;100.00
4415;BME280;2220;42.670;23.398;2023-08-21T06:00:35;95365.22;;;23.57;100.00
4415;BME280;2220;42.670;23.398;2023-08-21T06:03:01;95356.84;;;23.76;100.00
4415;BME280;2220;42.670;23.398;2023-08-21T06:05:26;95359.81;;;23.74;100.00
4415;BME280;2220;42.670;23.398;2023-08-21T06:07:52;95362.44;;;23.83;100.00
4415;BME280;2220;42.670;23.398;2023-08-21T06:10:17;95361.59;;;23.91;100.00
4415;BME280;2220;42.670;23.398;2023-08-21T06:12:43;95358.47;;;23.89;100.00
4415;BME280;2220;42.670;23.398;2023-08-21T06:15:09;95365.94;;;23.95;100.00
4415;BME280;2220;42.670;23.398;2023-08-21T06:17:36;95368.72;;;23.99;100.00
4415;BME280;2220;42.670;23.398;2023-08-21T06:20:01;95369.44;;;24.08;100.00
4415;BME280;2220;42.670;23.398;2023-08-21T06:22:28;95371.31;;;24.08;100.00
4415;BME280;2220;42.670;23.398;2023-08-21T06:24:53;95365.19;;;24.28;100.00
4415;BME280;2220;42.670;23.398;2023-08-21T06:27:19;95367.28;;;24.22;100.00
4415;BME280;2220;42.670;23.398;2023-08-21T06:29:44;95361.22;;;24.55;100.00
4415;BME280;2220;42.670;23.398;2023-08-21T06:32:09;95369.66;;;24.57;100.00
4415;BME280;2220;42.670;23.398;2023-08-21T06:34:35;95372.91;;;24.75;100.00
4415;BME280;2220;42.670;23.398;2023-08-21T06:37:00;95374.47;;;24.88;100.00
4415;BME280;2220;42.670;23.398;2023-08-21T06:39:26;95378.81;;;24.93;100.00
4415;BME280;2220;42.670;23.398;2023-08-21T06:41:51;95373.59;;;24.96;100.00
4415;BME280;2220;42.670;23.398;2023-08-21T06:44:17;95375.25;;;25.01;100.00
4415;BME280;2220;42.670;23.398;2023-08-21T06:46:43;95372.84;;;25.08;100.00
4415;BME280;2220;42.670;23.398;2023-08-21T06:49:08;95374.00;;;25.19;100.00
4415;BME280;2220;42.670;23.398;2023-08-21T06:51:34;95379.53;;;25.38;100.00
4415;BME280;2220;42.670;23.398;2023-08-21T06:53:59;95372.97;;;25.48;100.00
4415;BME280;2220;42.670;23.398;2023-08-21T06:56:24;95370.44;;;25.52;100.00
4415;BME280;2220;42.670;23.398;2023-08-21T06:58:50;95371.50;;;25.63;100.00
4415;BME280;2220;42.670;23.398;2023-08-21T07:01:15;95372.84;;;25.81;100.00
4415;BME280;2220;42.670;23.398;2023-08-21T07:03:41;95370.91;;;25.94;100.00
4415;BME280;2220;42.670;23.398;2023-08-21T07:06:06;95364.81;;;25.81;100.00
4415;BME280;2220;42.670;23.398;2023-08-21T07:08:32;95362.63;;;26.11;100.00
4415;BME280;2220;42.670;23.398;2023-08-21T07:11:02;95360.78;;;26.28;100.00
4415;BME280;2220;42.670;23.398;2023-08-21T07:13:29;95366.94;;;26.56;100.00
4415;BME280;2220;42.670;23.398;2023-08-21T07:15:54;95366.66;;;26.61;100.00
4415;BME280;2220;42.670;23.398;2023-08-21T07:18:23;95371.78;;;26.66;100.00
4415;BME280;2220;42.670;23.398;2023-08-21T07:20:48;95364.41;;;26.47;100.00
4415;BME280;2220;42.670;23.398;2023-08-21T07:23:16;95370.41;;;26.72;100.00
4415;BME280;2220;42.670;23.398;2023-08-21T07:25:42;95362.06;;;26.90;100.00
4415;BME280;2220;42.670;23.398;2023-08-21T07:28:08;95365.88;;;27.04;100.00
4415;BME280;2220;42.670;23.398;2023-08-21T07:30:37;95362.84;;;27.06;100.00
4415;BME280;2220;42.670;23.398;2023-08-21T07:33:02;95358.47;;;27.14;100.00
4415;BME280;2220;42.670;23.398;2023-08-21T07:35:28;95356.81;;;27.25;100.00
4415;BME280;2220;42.670;23.398;2023-08-21T07:37:53;95361.72;;;27.39;100.00
4415;BME280;2220;42.670;23.398;2023-08-21T07:40:19;95371.06;;;27.64;100.00
4415;BME280;2220;42.670;23.398;2023-08-21T07:42:44;95359.63;;;27.83;100.00
4415;BME280;2220;42.670;23.398;2023-08-21T07:45:10;95367.91;;;27.94;100.00
4415;BME280;2220;42.670;23.398;2023-08-21T07:47:36;95360.22;;;28.11;100.00
4415;BME280;2220;42.670;23.398;2023-08-21T07:50:01;95350.16;;;28.24;100.00
4415;BME280;2220;42.670;23.398;2023-08-21T07:52:27;95350.09;;;28.40;100.00
4415;BME280;2220;42.670;23.398;2023-08-21T07:54:53;95350.38;;;28.35;100.00
4415;BME280;2220;42.670;23.398;2023-08-21T07:57:19;95350.22;;;28.47;100.00
4415;BME280;2220;42.670;23.398;2023-08-21T07:59:44;95345.66;;;28.48;100.00
4415;BME280;2220;42.670;23.398;2023-08-21T08:02:09;95341.06;;;28.48;100.00
4415;BME280;2220;42.670;23.398;2023-08-21T08:04:38;95345.25;;;28.68;100.00
4415;BME280;2220;42.670;23.398;2023-08-21T08:07:03;95344.59;;;28.75;100.00
4415;BME280;2220;42.670;23.398;2023-08-21T08:09:29;95337.50;;;28.86;100.00
4415;BME280;2220;42.670;23.398;2023-08-21T08:11:54;95335.19;;;29.08;100.00
4415;BME280;2220;42.670;23.398;2023-08-21T08:14:20;95335.53;;;29.29;100.00
4415;BME280;2220;42.670;23.398;2023-08-21T08:16:45;95337.28;;;29.44;100.00
4415;BME280;2220;42.670;23.398;2023-08-21T08:19:10;95329.78;;;29.53;100.00
4415;BME280;2220;42.670;23.398;2023-08-21T08:21:36;95333.88;;;29.47;100.00
4415;BME280;2220;42.670;23.398;2023-08-21T08:24:01;95331.44;;;29.62;99.59
4415;BME280;2220;42.670;23.398;2023-08-21T08:26:27;95327.72;;;29.73;98.47
4415;BME280;2220;42.670;23.398;2023-08-21T08:28:52;95333.38;;;29.95;97.52
4415;BME280;2220;42.670;23.398;2023-08-21T08:31:18;95324.00;;;30.12;96.88
4415;BME280;2220;42.670;23.398;2023-08-21T08:33:44;95315.97;;;30.15;96.17
4415;BME280;2220;42.670;23.398;2023-08-21T08:36:10;95317.00;;;30.37;95.55
4415;BME280;2220;42.670;23.398;2023-08-21T08:38:35;95316.16;;;30.29;95.98
4415;BME280;2220;42.670;23.398;2023-08-21T08:41:07;95314.16;;;30.60;94.67
4415;BME280;2220;42.670;23.398;2023-08-21T08:43:39;95316.81;;;30.56;94.05
4415;BME280;2220;42.670;23.398;2023-08-21T08:46:06;95312.44;;;30.41;92.54
4415;BME280;2220;42.670;23.398;2023-08-21T08:48:34;95308.25;;;30.44;92.96
4415;BME280;2220;42.670;23.398;2023-08-21T08:51:01;95305.63;;;30.51;92.11
4415;BME280;2220;42.670;23.398;2023-08-21T08:53:27;95305.47;;;30.36;93.69
4415;BME280;2220;42.670;23.398;2023-08-21T08:55:53;95306.00;;;30.53;93.31
4415;BME280;2220;42.670;23.398;2023-08-21T08:58:18;95300.50;;;30.39;92.12
4415;BME280;2220;42.670;23.398;2023-08-21T09:00:44;95302.34;;;30.31;93.07
4415;BME280;2220;42.670;23.398;2023-08-21T09:03:10;95296.34;;;30.82;91.75
4415;BME280;2220;42.670;23.398;2023-08-21T09:05:36;95301.91;;;31.07;91.77
4415;BME280;2220;42.670;23.398;2023-08-21T09:10:34;95290.75;;;31.05;83.25
4415;BME280;2220;42.670;23.398;2023-08-21T09:13:01;95296.97;;;30.68;85.19
4415;BME280;2220;42.670;23.398;2023-08-21T09:15:30;95298.03;;;30.60;86.55
4415;BME280;2220;42.670;23.398;2023-08-21T09:17:56;95303.50;;;30.67;86.99
4415;BME280;2220;42.670;23.398;2023-08-21T09:20:21;95298.31;;;30.88;86.62
4415;BME280;2220;42.670;23.398;2023-08-21T09:22:54;95296.13;;;31.05;86.13
4415;BME280;2220;42.670;23.398;2023-08-21T09:25:20;95289.22;;;31.07;85.84
4415;BME280;2220;42.670;23.398;2023-08-21T09:27:46;95290.56;;;31.35;84.21
4415;BME280;2220;42.670;23.398;2023-08-21T09:30:16;95282.66;;;31.67;83.53
4415;BME280;2220;42.670;23.398;2023-08-21T09:33:00;95290.09;;;31.91;84.62
4415;BME280;2220;42.670;23.398;2023-08-21T09:35:26;95283.22;;;31.94;83.91
4415;BME280;2220;42.670;23.398;2023-08-21T09:37:52;95276.78;;;31.43;81.87
4415;BME280;2220;42.670;23.398;2023-08-21T09:40:21;95275.16;;;32.01;80.58
4415;BME280;2220;42.670;23.398;2023-08-21T09:42:52;95274.41;;;32.11;82.34
4415;BME280;2220;42.670;23.398;2023-08-21T09:45:26;95272.06;;;32.03;82.45
4415;BME280;2220;42.670;23.398;2023-08-21T09:47:53;95279.78;;;32.00;80.22
4415;BME280;2220;42.670;23.398;2023-08-21T09:50:19;95277.03;;;31.86;79.93
4415;BME280;2220;42.670;23.398;2023-08-21T09:52:45;95262.00;;;31.78;80.31
4415;BME280;2220;42.670;23.398;2023-08-21T09:55:12;95264.91;;;31.52;82.17
4415;BME280;2220;42.670;23.398;2023-08-21T09:57:39;95269.50;;;31.51;82.73
4415;BME280;2220;42.670;23.398;2023-08-21T10:00:07;95259.91;;;31.46;82.43
4415;BME280;2220;42.670;23.398;2023-08-21T10:02:49;95263.84;;;31.74;79.70
4415;BME280;2220;42.670;23.398;2023-08-21T10:05:17;95251.69;;;32.01;76.95
4415;BME280;2220;42.670;23.398;2023-08-21T10:07:45;95244.84;;;32.40;76.55
4415;BME280;2220;42.670;23.398;2023-08-21T10:10:12;95248.28;;;32.26;77.28
4415;BME280;2220;42.670;23.398;2023-08-21T10:12:38;95246.78;;;32.46;76.88
4415;BME280;2220;42.670;23.398;2023-08-21T10:15:05;95242.09;;;32.18;75.12
4415;BME280;2220;42.670;23.398;2023-08-21T10:17:32;95248.97;;;32.05;75.69
4415;BME280;2220;42.670;23.398;2023-08-21T10:20:08;95245.16;;;32.20;75.86
4415;BME280;2220;42.670;23.398;2023-08-21T10:22:45;95242.53;;;32.52;76.45
4415;BME280;2220;42.670;23.398;2023-08-21T10:25:18;95228.31;;;33.05;74.62
4415;BME280;2220;42.670;23.398;2023-08-21T10:27:57;95231.31;;;33.43;75.92
4415;BME280;2220;42.670;23.398;2023-08-21T10:30:24;95227.84;;;33.46;75.18
4415;BME280;2220;42.670;23.398;2023-08-21T10:32:52;95214.81;;;33.05;73.43
4415;BME280;2220;42.670;23.398;2023-08-21T10:35:20;95223.28;;;33.04;72.57
4415;BME280;2220;42.670;23.398;2023-08-21T10:38:05;95216.34;;;33.14;71.19
4415;BME280;2220;42.670;23.398;2023-08-21T10:40:32;95204.78;;;32.99;70.79
4415;BME280;2220;42.670;23.398;2023-08-21T10:42:58;95209.41;;;33.05;70.45
4415;BME280;2220;42.670;23.398;2023-08-21T10:45:24;95217.13;;;33.07;70.42
4415;BME280;2220;42.670;23.398;2023-08-21T10:47:49;95206.34;;;32.89;72.30
4415;BME280;2220;42.670;23.398;2023-08-21T10:50:16;95204.78;;;33.06;70.74
4415;BME280;2220;42.670;23.398;2023-08-21T10:52:43;95208.53;;;33.48;70.99
4415;BME280;2220;42.670;23.398;2023-08-21T10:55:12;95202.00;;;33.31;69.71
4415;BME280;2220;42.670;23.398;2023-08-21T10:57:38;95201.28;;;33.16;71.22
4415;BME280;2220;42.670;23.398;2023-08-21T11:02:35;95201.06;;;33.80;68.95
4415;BME280;2220;42.670;23.398;2023-08-21T11:05:01;95199.25;;;33.56;67.82
4415;BME280;2220;42.670;23.398;2023-08-21T11:07:31;95196.88;;;33.68;67.14
4415;BME280;2220;42.670;23.398;2023-08-21T11:10:01;95183.66;;;33.96;66.88
4415;BME280;2220;42.670;23.398;2023-08-21T11:12:28;95186.75;;;33.87;65.73
4415;BME280;2220;42.670;23.398;2023-08-21T11:14:53;95186.34;;;33.85;64.92
4415;BME280;2220;42.670;23.398;2023-08-21T11:17:19;95188.69;;;33.90;65.52
4415;BME280;2220;42.670;23.398;2023-08-21T11:19:45;95188.69;;;33.83;63.64
4415;BME280;2220;42.670;23.398;2023-08-21T11:22:12;95184.38;;;34.03;62.05
4415;BME280;2220;42.670;23.398;2023-08-21T11:27:04;95182.66;;;33.57;62.28
4415;BME280;2220;42.670;23.398;2023-08-21T11:29:36;95186.97;;;33.26;62.42
4415;BME280;2220;42.670;23.398;2023-08-21T11:32:02;95182.00;;;33.21;62.94
4415;BME280;2220;42.670;23.398;2023-08-21T11:34:28;95178.09;;;33.40;61.96
4415;BME280;2220;42.670;23.398;2023-08-21T11:36:54;95185.16;;;32.91;61.41
4415;BME280;2220;42.670;23.398;2023-08-21T11:39:20;95183.13;;;33.38;61.19
4415;BME280;2220;42.670;23.398;2023-08-21T11:41:56;95177.22;;;33.64;60.40
4415;BME280;2220;42.670;23.398;2023-08-21T11:44:22;95169.00;;;33.93;59.51
4415;BME280;2220;42.670;23.398;2023-08-21T11:46:50;95160.97;;;33.72;58.98
4415;BME280;2220;42.670;23.398;2023-08-21T11:49:16;95178.06;;;33.44;59.60
4415;BME280;2220;42.670;23.398;2023-08-21T11:51:45;95161.94;;;33.22;59.08
4415;BME280;2220;42.670;23.398;2023-08-21T11:54:10;95166.84;;;33.52;58.95
4415;BME280;2220;42.670;23.398;2023-08-21T11:56:38;95167.22;;;33.58;57.82
4415;BME280;2220;42.670;23.398;2023-08-21T11:59:04;95166.84;;;33.56;56.21
4415;BME280;2220;42.670;23.398;2023-08-21T12:01:33;95168.03;;;33.44;56.20
4415;BME280;2220;42.670;23.398;2023-08-21T12:03:59;95165.72;;;33.53;56.83
4415;BME280;2220;42.670;23.398;2023-08-21T12:06:25;95166.50;;;33.47;56.16
4415;BME280;2220;42.670;23.398;2023-08-21T12:08:51;95154.53;;;33.48;57.04
4415;BME280;2220;42.670;23.398;2023-08-21T12:11:17;95161.06;;;33.54;56.78
4415;BME280;2220;42.670;23.398;2023-08-21T12:13:42;95152.88;;;33.68;54.51
4415;BME280;2220;42.670;23.398;2023-08-21T12:16:08;95164.81;;;33.78;53.69
4415;BME280;2220;42.670;23.398;2023-08-21T12:18:33;95151.69;;;33.80;54.23
4415;BME280;2220;42.670;23.398;2023-08-21T12:20:59;95140.81;;;33.94;54.27
4415;BME280;2220;42.670;23.398;2023-08-21T12:23:24;95157.44;;;33.89;53.12
4415;BME280;2220;42.670;23.398;2023-08-21T12:25:50;95137.16;;;33.52;55.58
4415;BME280;2220;42.670;23.398;2023-08-21T12:28:15;95141.03;;;33.48;56.52
4415;BME280;2220;42.670;23.398;2023-08-21T12:30:41;95146.22;;;33.87;56.12
4415;BME280;2220;42.670;23.398;2023-08-21T12:33:06;95139.38;;;33.72;53.87
4415;BME280;2220;42.670;23.398;2023-08-21T12:35:32;95136.75;;;33.61;56.59
4415;BME280;2220;42.670;23.398;2023-08-21T12:37:58;95137.34;;;33.93;57.38
4415;BME280;2220;42.670;23.398;2023-08-21T12:40:24;95138.06;;;34.01;56.47
4415;BME280;2220;42.670;23.398;2023-08-21T12:42:49;95138.66;;;34.23;56.01
4415;BME280;2220;42.670;23.398;2023-08-21T12:45:16;95140.00;;;34.53;55.11
4415;BME280;2220;42.670;23.398;2023-08-21T12:47:42;95127.94;;;34.12;55.02
4415;BME280;2220;42.670;23.398;2023-08-21T12:50:08;95135.94;;;34.23;54.03
4415;BME280;2220;42.670;23.398;2023-08-21T12:52:33;95135.28;;;34.08;53.89
4415;BME280;2220;42.670;23.398;2023-08-21T12:54:59;95136.91;;;34.02;53.04
4415;BME280;2220;42.670;23.398;2023-08-21T12:57:26;95121.41;;;34.06;56.01
4415;BME280;2220;42.670;23.398;2023-08-21T12:59:52;95128.72;;;34.61;55.20
4415;BME280;2220;42.670;23.398;2023-08-21T13:02:17;95130.97;;;35.08;53.14
4415;BME280;2220;42.670;23.398;2023-08-21T13:04:44;95119.94;;;35.25;53.08
4415;BME280;2220;42.670;23.398;2023-08-21T13:07:09;95102.94;;;34.87;53.36
4415;BME280;2220;42.670;23.398;2023-08-21T13:09:35;95112.78;;;35.08;53.24
4415;BME280;2220;42.670;23.398;2023-08-21T13:12:01;95118.22;;;34.67;50.28